createdAt,value
2018-09-24T00:01:44.363Z,0.00
2018-09-24T00:04:13.008Z,0.00
2018-09-24T00:06:41.724Z,0.10
2018-09-24T00:09:10.757Z,0.10
2018-09-24T00:11:39.606Z,0.00
2018-09-24T00:14:08.381Z,0.00
2018-09-24T00:16:37.163Z,0.03
2018-09-24T00:19:05.888Z,0.10
2018-09-24T00:21:34.504Z,0.10
2018-09-24T00:24:03.250Z,0.10
2018-09-24T00:26:31.966Z,0.00
2018-09-24T00:29:00.881Z,0.20
2018-09-24T00:31:29.511Z,0.10
2018-09-24T00:33:58.285Z,0.10
2018-09-24T00:36:27.100Z,0.30
2018-09-24T00:38:56.198Z,0.10
2018-09-24T00:41:25.143Z,0.00
2018-09-24T00:43:53.793Z,0.00
2018-09-24T00:46:22.618Z,0.23
2018-09-24T00:48:51.446Z,0.00
2018-09-24T00:51:20.144Z,0.00
2018-09-24T00:53:48.891Z,0.03
2018-09-24T00:56:17.784Z,0.30
2018-09-24T00:58:46.497Z,0.00
2018-09-24T01:01:15.385Z,0.00
2018-09-24T01:03:44.028Z,0.10
2018-09-24T01:06:12.900Z,0.10
2018-09-24T01:08:41.505Z,0.00
2018-09-24T01:11:10.394Z,0.20
2018-09-24T01:13:39.455Z,0.10
2018-09-24T01:16:08.265Z,0.17
2018-09-24T01:18:37.721Z,0.13
2018-09-24T01:21:06.599Z,0.10
2018-09-24T01:23:35.336Z,0.10
2018-09-24T01:26:04.340Z,0.33
2018-09-24T01:28:33.257Z,0.23
2018-09-24T01:31:02.035Z,0.10
2018-09-24T01:33:30.923Z,0.30
2018-09-24T01:35:59.818Z,0.10
2018-09-24T01:38:35.168Z,0.10
2018-09-24T01:41:04.337Z,0.10
2018-09-24T01:43:33.036Z,0.17
2018-09-24T01:46:02.176Z,0.10
2018-09-24T01:48:30.827Z,0.20
2018-09-24T01:50:59.541Z,0.20
2018-09-24T01:53:28.563Z,0.10
2018-09-24T01:55:57.180Z,0.10
2018-09-24T01:58:25.897Z,0.23
2018-09-24T02:00:54.887Z,0.10
2018-09-24T02:03:32.261Z,0.20
2018-09-24T02:06:01.770Z,0.03
2018-09-24T02:08:30.999Z,0.30
2018-09-24T02:10:59.724Z,0.00
2018-09-24T02:13:28.435Z,0.20
2018-09-24T02:15:57.335Z,0.10
2018-09-24T02:18:26.076Z,0.10
2018-09-24T02:20:55.051Z,0.00
2018-09-24T02:23:23.885Z,0.20
2018-09-24T02:25:52.704Z,0.10
2018-09-24T02:28:21.844Z,0.10
2018-09-24T02:30:50.671Z,0.10
2018-09-24T02:33:19.541Z,0.07
2018-09-24T02:35:49.982Z,0.00
2018-09-24T02:38:19.725Z,0.10
2018-09-24T02:40:48.515Z,0.10
2018-09-24T02:43:23.388Z,0.20
2018-09-24T02:45:53.394Z,0.10
2018-09-24T02:48:22.157Z,0.00
2018-09-24T02:50:50.978Z,0.00
2018-09-24T02:53:19.748Z,0.13
2018-09-24T02:55:48.641Z,0.10
2018-09-24T02:58:18.843Z,0.00
2018-09-24T03:00:47.757Z,0.10
2018-09-24T03:03:16.419Z,0.20
2018-09-24T03:05:45.475Z,0.10
2018-09-24T03:08:14.966Z,0.10
2018-09-24T03:10:43.846Z,0.20
2018-09-24T03:13:12.704Z,0.10
2018-09-24T03:15:42.358Z,0.20
2018-09-24T03:18:11.587Z,0.17
2018-09-24T03:20:43.872Z,0.20
2018-09-24T03:23:12.573Z,0.10
2018-09-24T03:25:41.570Z,0.30
2018-09-24T03:28:10.226Z,0.10
2018-09-24T03:30:41.394Z,0.10
2018-09-24T03:33:10.316Z,0.13
2018-09-24T03:35:39.068Z,0.20
2018-09-24T03:38:08.042Z,0.20
2018-09-24T03:40:37.070Z,0.00
2018-09-24T03:43:05.902Z,0.10
2018-09-24T03:45:34.573Z,0.20
2018-09-24T03:48:03.366Z,0.17
2018-09-24T03:50:32.192Z,0.13
2018-09-24T03:53:00.918Z,0.30
2018-09-24T03:55:29.612Z,0.20
2018-09-24T03:57:58.456Z,0.10
2018-09-24T04:00:27.073Z,0.20
2018-09-24T04:02:55.801Z,0.17
2018-09-24T04:05:30.107Z,0.10
2018-09-24T04:08:04.155Z,0.13
2018-09-24T04:10:38.383Z,0.20
2018-09-24T04:13:12.180Z,0.33
2018-09-24T04:15:46.142Z,0.20
2018-09-24T04:18:20.251Z,0.20
2018-09-24T04:20:55.047Z,0.20
2018-09-24T04:23:32.252Z,0.30
2018-09-24T04:26:06.128Z,0.80
2018-09-24T04:28:40.223Z,0.20
2018-09-24T04:31:14.653Z,0.30
2018-09-24T04:33:48.675Z,0.20
2018-09-24T04:36:22.592Z,0.30
2018-09-24T04:38:56.539Z,0.30
2018-09-24T04:41:30.515Z,0.10
2018-09-24T04:44:04.486Z,0.60
2018-09-24T04:46:38.662Z,0.13
2018-09-24T04:49:12.704Z,0.17
2018-09-24T04:51:46.607Z,0.33
2018-09-24T04:54:20.719Z,0.27
2018-09-24T04:56:54.499Z,0.60
2018-09-24T04:59:28.313Z,0.30
2018-09-24T05:02:02.220Z,0.30
2018-09-24T05:04:36.259Z,0.50
2018-09-24T05:07:10.380Z,0.30
2018-09-24T05:09:44.132Z,0.60
2018-09-24T05:12:18.195Z,0.30
2018-09-24T05:14:52.344Z,0.50
2018-09-24T05:17:26.163Z,0.23
2018-09-24T05:20:00.105Z,0.50
2018-09-24T05:22:34.016Z,0.30
2018-09-24T05:25:09.419Z,0.27
2018-09-24T05:27:43.381Z,0.47
2018-09-24T05:30:17.037Z,0.50
2018-09-24T05:32:51.076Z,0.60
2018-09-24T05:35:25.003Z,0.60
2018-09-24T05:37:58.894Z,0.50
2018-09-24T05:40:32.971Z,0.50
2018-09-24T05:43:07.072Z,0.60
2018-09-24T05:45:41.044Z,0.70
2018-09-24T05:48:15.291Z,0.63
2018-09-24T05:50:49.260Z,0.70
2018-09-24T05:53:23.289Z,0.63
2018-09-24T05:55:57.299Z,0.40
2018-09-24T05:58:31.219Z,0.70
2018-09-24T06:01:05.153Z,0.37
2018-09-24T06:03:39.113Z,0.70
2018-09-24T06:06:12.994Z,0.40
2018-09-24T06:08:46.778Z,0.60
2018-09-24T06:11:20.834Z,0.50
2018-09-24T06:13:54.668Z,0.60
2018-09-24T06:16:28.677Z,0.90
2018-09-24T06:19:02.583Z,1.00
2018-09-24T06:21:36.766Z,0.70
2018-09-24T06:24:10.741Z,0.90
2018-09-24T06:26:44.892Z,0.87
2018-09-24T06:29:18.930Z,1.10
2018-09-24T06:31:52.850Z,1.20
2018-09-24T06:34:27.079Z,1.23
2018-09-24T06:37:01.212Z,0.93
2018-09-24T06:39:35.225Z,0.80
2018-09-24T06:42:09.215Z,0.70
2018-09-24T06:44:43.240Z,0.70
2018-09-24T06:47:17.050Z,0.80
2018-09-24T06:49:50.964Z,0.90
2018-09-24T06:52:25.102Z,0.77
2018-09-24T06:54:59.037Z,0.77
2018-09-24T06:57:33.074Z,0.60
2018-09-24T07:00:07.033Z,0.50
2018-09-24T07:02:41.034Z,0.80
2018-09-24T07:05:15.082Z,0.77
2018-09-24T07:07:49.262Z,0.70
2018-09-24T07:10:23.269Z,1.20
2018-09-24T07:12:57.081Z,0.80
2018-09-24T07:15:30.930Z,0.50
2018-09-24T07:18:04.952Z,0.60
2018-09-24T07:20:38.981Z,0.47
2018-09-24T07:23:12.916Z,0.63
2018-09-24T07:25:46.830Z,0.70
2018-09-24T07:28:20.846Z,0.50
2018-09-24T07:30:54.847Z,0.50
2018-09-24T07:33:29.049Z,0.50
2018-09-24T07:36:03.070Z,0.63
2018-09-24T07:38:36.973Z,0.80
2018-09-24T07:41:11.005Z,0.63
2018-09-24T07:43:44.925Z,0.90
2018-09-24T07:46:19.013Z,0.60
2018-09-24T07:48:53.173Z,0.50
2018-09-24T07:51:27.521Z,0.63
2018-09-24T07:54:01.886Z,0.70
2018-09-24T07:56:36.207Z,0.73
2018-09-24T07:59:10.522Z,0.83
2018-09-24T08:01:44.934Z,0.90
2018-09-24T08:04:19.271Z,0.83
2018-09-24T08:06:53.533Z,0.70
2018-09-24T08:09:27.848Z,0.53
2018-09-24T08:12:02.040Z,0.60
2018-09-24T08:14:36.296Z,0.50
2018-09-24T08:17:10.532Z,0.67
2018-09-24T08:19:44.852Z,0.60
2018-09-24T08:22:19.169Z,0.40
2018-09-24T08:24:53.528Z,0.77
2018-09-24T08:27:27.824Z,0.73
2018-09-24T08:30:02.335Z,0.50
2018-09-24T08:32:36.330Z,0.50
2018-09-24T08:35:10.710Z,0.60
2018-09-24T08:37:44.994Z,0.50
2018-09-24T08:40:19.338Z,0.50
2018-09-24T08:42:53.453Z,0.60
2018-09-24T08:45:27.706Z,0.67
2018-09-24T08:48:02.151Z,0.60
2018-09-24T08:50:36.456Z,0.60
2018-09-24T08:53:17.861Z,0.60
2018-09-24T08:55:52.127Z,0.70
2018-09-24T08:58:26.612Z,0.50
2018-09-24T09:01:00.849Z,0.50
2018-09-24T09:03:35.292Z,0.70
2018-09-24T09:06:09.644Z,0.50
2018-09-24T09:08:44.039Z,0.80
2018-09-24T09:11:18.365Z,0.60
2018-09-24T09:13:52.592Z,0.60
2018-09-24T09:16:26.793Z,0.70
2018-09-24T09:19:01.231Z,0.60
2018-09-24T09:21:35.418Z,0.50
2018-09-24T09:24:09.949Z,0.70
2018-09-24T09:26:44.191Z,0.70
2018-09-24T09:29:18.559Z,0.50
2018-09-24T09:31:53.031Z,0.60
2018-09-24T09:34:27.286Z,0.60
2018-09-24T09:37:01.406Z,0.60
2018-09-24T09:39:35.713Z,0.47
2018-09-24T09:42:09.904Z,0.60
2018-09-24T09:44:44.230Z,0.60
2018-09-24T09:47:33.485Z,0.57
2018-09-24T09:50:07.840Z,0.60
2018-09-24T09:52:42.039Z,0.47
2018-09-24T09:55:16.245Z,0.67
2018-09-24T09:57:50.704Z,0.40
2018-09-24T10:00:24.879Z,0.60
2018-09-24T10:02:59.260Z,0.70
2018-09-24T10:05:33.436Z,0.67
2018-09-24T10:08:07.793Z,0.73
2018-09-24T10:10:42.125Z,0.60
2018-09-24T10:13:16.441Z,0.50
2018-09-24T10:15:50.858Z,0.70
2018-09-24T10:18:25.110Z,0.50
2018-09-24T10:20:59.571Z,0.70
2018-09-24T10:23:34.236Z,0.73
2018-09-24T10:26:08.564Z,0.60
2018-09-24T10:28:42.900Z,0.37
2018-09-24T10:31:17.054Z,0.53
2018-09-24T10:33:51.508Z,0.70
2018-09-24T10:36:25.673Z,0.70
2018-09-24T10:39:00.110Z,0.50
2018-09-24T10:41:34.638Z,0.70
2018-09-24T10:44:09.096Z,0.40
2018-09-24T10:46:43.449Z,1.70
2018-09-24T10:49:17.728Z,0.40
2018-09-24T10:51:52.024Z,0.80
2018-09-24T10:54:26.626Z,0.40
2018-09-24T10:57:00.698Z,0.57
2018-09-24T10:59:35.634Z,0.43
2018-09-24T11:02:10.148Z,0.50
2018-09-24T11:04:44.557Z,0.50
2018-09-24T11:07:18.988Z,0.40
2018-09-24T11:09:53.574Z,0.27
2018-09-24T11:12:27.715Z,0.20
2018-09-24T11:15:01.916Z,0.37
2018-09-24T11:17:36.209Z,0.40
2018-09-24T11:20:10.803Z,0.40
2018-09-24T11:22:45.058Z,0.30
2018-09-24T11:25:19.227Z,0.40
2018-09-24T11:27:53.457Z,0.30
2018-09-24T11:30:27.846Z,0.40
2018-09-24T11:33:02.188Z,0.40
2018-09-24T11:35:36.614Z,0.20
2018-09-24T11:38:11.015Z,0.40
2018-09-24T11:40:45.448Z,0.37
2018-09-24T11:43:19.694Z,0.40
2018-09-24T11:45:54.025Z,0.40
2018-09-24T11:48:28.555Z,0.30
2018-09-24T11:51:02.807Z,0.40
2018-09-24T11:53:36.939Z,0.40
2018-09-24T11:56:11.364Z,0.23
2018-09-24T11:58:45.825Z,0.40
2018-09-24T12:01:20.268Z,0.70
2018-09-24T12:03:54.890Z,0.20
2018-09-24T12:06:29.153Z,0.27
2018-09-24T12:09:03.292Z,0.33
2018-09-24T12:11:37.814Z,0.23
2018-09-24T12:14:12.181Z,0.30
2018-09-24T12:16:46.563Z,0.20
2018-09-24T12:19:20.893Z,0.20
2018-09-24T12:21:55.125Z,0.20
2018-09-24T12:24:29.519Z,0.20
2018-09-24T12:27:03.877Z,0.10
2018-09-24T12:29:38.291Z,0.20
2018-09-24T12:32:12.578Z,0.10
2018-09-24T12:34:47.143Z,0.10
2018-09-24T12:37:21.602Z,0.30
2018-09-24T12:39:55.985Z,0.10
2018-09-24T12:42:30.217Z,0.10
2018-09-24T12:45:04.653Z,0.20
2018-09-24T12:47:38.787Z,0.40
2018-09-24T12:50:13.067Z,0.23
2018-09-24T12:52:47.522Z,0.37
2018-09-24T12:55:22.018Z,0.20
2018-09-24T12:57:56.161Z,0.20
2018-09-24T13:00:30.581Z,0.33
2018-09-24T13:03:04.745Z,0.50
2018-09-24T13:05:39.174Z,0.30
2018-09-24T13:08:13.648Z,0.30
2018-09-24T13:10:48.167Z,0.50
2018-09-24T13:13:22.320Z,0.53
2018-09-24T13:15:56.749Z,1.93
2018-09-24T13:18:37.593Z,0.50
2018-09-24T13:21:11.940Z,0.47
2018-09-24T13:23:46.268Z,0.60
2018-09-24T13:26:20.704Z,0.40
2018-09-24T13:28:54.785Z,0.50
2018-09-24T13:31:29.049Z,0.27
2018-09-24T13:34:03.379Z,0.50
2018-09-24T13:36:37.721Z,0.40
2018-09-24T13:39:14.223Z,0.30
2018-09-24T13:41:48.793Z,0.60
2018-09-24T13:44:23.189Z,0.30
2018-09-24T13:46:57.423Z,0.33
2018-09-24T13:49:31.712Z,0.53
2018-09-24T13:52:05.860Z,0.47
2018-09-24T13:54:40.242Z,0.20
2018-09-24T13:57:14.631Z,0.53
2018-09-24T13:59:49.089Z,0.50
2018-09-24T14:02:23.423Z,0.50
2018-09-24T14:04:57.584Z,0.80
2018-09-24T14:07:31.820Z,0.50
2018-09-24T14:10:06.199Z,0.40
2018-09-24T14:12:40.618Z,0.40
2018-09-24T14:15:14.775Z,0.60
2018-09-24T14:17:49.233Z,0.40
2018-09-24T14:20:23.532Z,0.30
2018-09-24T14:22:57.877Z,0.63
2018-09-24T14:25:32.067Z,0.40
2018-09-24T14:28:06.520Z,0.50
2018-09-24T14:30:40.800Z,0.67
2018-09-24T14:33:15.016Z,0.30
2018-09-24T14:35:49.192Z,0.30
2018-09-24T14:38:23.339Z,0.40
2018-09-24T14:40:57.930Z,0.30
2018-09-24T14:43:32.233Z,0.30
2018-09-24T14:46:06.562Z,0.40
2018-09-24T14:48:40.875Z,0.37
2018-09-24T14:51:15.092Z,0.37
2018-09-24T14:53:49.267Z,0.20
2018-09-24T14:56:23.512Z,0.30
2018-09-24T14:58:57.655Z,0.30
2018-09-24T15:01:32.196Z,0.33
2018-09-24T15:04:06.705Z,0.30
2018-09-24T15:06:41.156Z,0.10
2018-09-24T15:09:15.844Z,0.60
2018-09-24T15:11:50.268Z,0.13
2018-09-24T15:14:24.384Z,0.20
2018-09-24T15:16:58.531Z,0.40
2018-09-24T15:19:32.908Z,0.47
2018-09-24T15:22:07.112Z,0.10
2018-09-24T15:24:41.466Z,0.20
2018-09-24T15:27:15.870Z,0.30
2018-09-24T15:29:50.305Z,0.37
2018-09-24T15:32:24.503Z,0.20
2018-09-24T15:34:58.948Z,0.30
2018-09-24T15:37:33.363Z,0.13
2018-09-24T15:40:07.629Z,0.20
2018-09-24T15:42:41.763Z,0.50
2018-09-24T15:45:15.861Z,0.40
2018-09-24T15:47:50.349Z,0.30
2018-09-24T15:50:24.834Z,0.20
2018-09-24T15:52:58.874Z,0.20
2018-09-24T15:55:33.667Z,0.30
2018-09-24T15:58:08.204Z,0.20
2018-09-24T16:00:42.502Z,0.30
2018-09-24T16:03:20.767Z,0.17
2018-09-24T16:05:55.249Z,0.30
2018-09-24T16:08:33.927Z,0.30
2018-09-24T16:11:13.461Z,0.27
2018-09-24T16:13:53.075Z,0.20
2018-09-24T16:16:30.099Z,0.10
2018-09-24T16:19:04.406Z,0.27
2018-09-24T16:21:38.520Z,0.23
2018-09-24T16:24:12.715Z,0.23
2018-09-24T16:26:47.264Z,0.20
2018-09-24T16:29:21.822Z,0.40
2018-09-24T16:31:56.486Z,0.23
2018-09-24T16:34:37.934Z,0.10
2018-09-24T16:37:15.232Z,0.20
2018-09-24T16:39:52.213Z,0.40
2018-09-24T16:42:30.196Z,0.30
2018-09-24T16:45:07.367Z,0.30
2018-09-24T16:47:44.130Z,0.20
2018-09-24T16:50:24.803Z,0.30
2018-09-24T16:53:01.864Z,0.30
2018-09-24T16:55:38.651Z,0.30
2018-09-24T16:58:13.318Z,0.20
2018-09-24T17:00:50.533Z,0.20
2018-09-24T17:03:27.097Z,0.20
2018-09-24T17:06:03.685Z,0.27
2018-09-24T17:08:43.261Z,0.40
2018-09-24T17:11:19.584Z,0.40
2018-09-24T17:13:55.578Z,0.30
2018-09-24T17:16:33.806Z,0.20
2018-09-24T17:19:10.848Z,0.10
2018-09-24T17:21:46.585Z,0.30
2018-09-24T17:24:24.212Z,0.13
2018-09-24T17:26:58.630Z,0.30
2018-09-24T17:29:32.947Z,0.43
2018-09-24T17:32:06.918Z,0.30
2018-09-24T17:34:41.060Z,0.30
2018-09-24T17:37:15.210Z,0.40
2018-09-24T17:39:49.313Z,0.20
2018-09-24T17:42:23.436Z,0.30
2018-09-24T17:44:57.376Z,0.30
2018-09-24T17:47:31.573Z,0.30
2018-09-24T17:50:05.619Z,0.13
2018-09-24T17:52:39.608Z,0.30
2018-09-24T17:55:14.036Z,0.43
2018-09-24T17:57:48.554Z,0.20
2018-09-24T18:00:23.014Z,0.30
2018-09-24T18:02:57.475Z,0.20
2018-09-24T18:05:31.749Z,0.40
2018-09-24T18:08:06.317Z,0.40
2018-09-24T18:10:40.631Z,0.30
2018-09-24T18:13:15.082Z,0.20
2018-09-24T18:15:49.392Z,0.23
2018-09-24T18:18:23.962Z,0.17
2018-09-24T18:20:58.331Z,0.20
2018-09-24T18:23:32.821Z,0.40
2018-09-24T18:26:07.146Z,0.20
2018-09-24T18:28:41.422Z,0.20
2018-09-24T18:31:15.825Z,0.27
2018-09-24T18:33:51.265Z,0.70
2018-09-24T18:36:25.574Z,0.47
2018-09-24T18:39:00.169Z,0.47
2018-09-24T18:41:34.546Z,0.30
2018-09-24T18:44:10.388Z,0.40
2018-09-24T18:46:45.238Z,0.33
2018-09-24T18:49:19.431Z,0.30
2018-09-24T18:51:53.563Z,0.20
2018-09-24T18:54:28.150Z,0.53
2018-09-24T18:57:02.273Z,0.40
2018-09-24T18:59:36.665Z,0.40
2018-09-24T19:02:12.301Z,0.30
2018-09-24T19:04:46.928Z,0.33
2018-09-24T19:07:22.427Z,0.43
2018-09-24T19:09:57.151Z,0.50
2018-09-24T19:12:32.093Z,0.20
2018-09-24T19:15:07.160Z,0.30
2018-09-24T19:17:41.963Z,0.30
2018-09-24T19:20:16.959Z,0.20
2018-09-24T19:22:51.804Z,0.50
2018-09-24T19:25:27.694Z,0.60
2018-09-24T19:28:02.528Z,0.30
2018-09-24T19:30:37.459Z,0.30
2018-09-24T19:33:12.807Z,0.40
2018-09-24T19:35:47.426Z,0.23
2018-09-24T19:38:21.734Z,0.30
2018-09-24T19:40:56.288Z,0.23
2018-09-24T19:43:30.871Z,0.20
2018-09-24T19:46:04.975Z,0.30
2018-09-24T19:48:39.173Z,0.30
2018-09-24T19:51:13.338Z,0.20
2018-09-24T19:53:47.373Z,0.20
2018-09-24T19:56:21.499Z,0.20
2018-09-24T19:58:55.966Z,0.60
2018-09-24T20:01:30.791Z,0.30
2018-09-24T20:04:05.050Z,0.30
2018-09-24T20:06:39.300Z,0.20
2018-09-24T20:09:14.663Z,0.40
2018-09-24T20:11:49.165Z,0.30
2018-09-24T20:14:23.601Z,0.30
2018-09-24T20:16:58.305Z,0.20
2018-09-24T20:19:32.736Z,0.30
2018-09-24T20:22:07.114Z,0.30
2018-09-24T20:24:41.328Z,0.60
2018-09-24T20:27:15.461Z,0.60
2018-09-24T20:29:50.125Z,0.30
2018-09-24T20:32:24.443Z,0.33
2018-09-24T20:34:58.548Z,0.43
2018-09-24T20:37:32.872Z,0.47
2018-09-24T20:40:07.937Z,0.20
2018-09-24T20:42:42.201Z,0.50
2018-09-24T20:45:16.730Z,0.60
2018-09-24T20:47:50.947Z,0.40
2018-09-24T20:50:25.295Z,0.40
2018-09-24T20:52:59.219Z,0.47
2018-09-24T20:55:33.179Z,0.20
2018-09-24T20:58:07.274Z,0.37
2018-09-24T21:00:41.317Z,0.33
2018-09-24T21:03:15.394Z,0.30
2018-09-24T21:05:49.410Z,0.23
2018-09-24T21:08:23.540Z,0.30
2018-09-24T21:10:57.394Z,0.30
2018-09-24T21:13:31.420Z,0.40
2018-09-24T21:16:05.632Z,0.60
2018-09-24T21:18:39.685Z,0.30
2018-09-24T21:21:13.645Z,0.40
2018-09-24T21:23:47.624Z,0.40
2018-09-24T21:26:21.641Z,0.40
2018-09-24T21:28:55.795Z,0.40
2018-09-24T21:31:29.598Z,0.50
2018-09-24T21:34:03.440Z,0.80
2018-09-24T21:36:37.358Z,0.57
2018-09-24T21:39:12.695Z,0.40
2018-09-24T21:41:46.868Z,0.43
2018-09-24T21:44:21.373Z,0.57
2018-09-24T21:46:55.346Z,0.30
2018-09-24T21:49:29.319Z,0.60
2018-09-24T21:52:03.357Z,0.60
2018-09-24T21:54:37.301Z,0.50
2018-09-24T21:57:11.371Z,0.23
2018-09-24T21:59:45.738Z,0.50
2018-09-24T22:02:19.934Z,0.73
2018-09-24T22:04:54.000Z,0.40
2018-09-24T22:07:28.091Z,0.80
2018-09-24T22:10:02.006Z,0.30
2018-09-24T22:12:36.144Z,0.50
2018-09-24T22:15:10.056Z,0.40
2018-09-24T22:17:43.892Z,0.37
2018-09-24T22:20:17.878Z,0.50
2018-09-24T22:22:51.884Z,0.40
2018-09-24T22:25:25.805Z,0.30
2018-09-24T22:27:59.780Z,0.23
2018-09-24T22:30:33.811Z,0.40
2018-09-24T22:33:07.842Z,0.40
2018-09-24T22:35:41.672Z,0.37
2018-09-24T22:38:15.680Z,0.50
2018-09-24T22:40:49.529Z,0.50
2018-09-24T22:43:23.697Z,0.40
2018-09-24T22:45:57.804Z,0.50
2018-09-24T22:48:31.809Z,0.50
2018-09-24T22:51:05.801Z,0.63
2018-09-24T22:53:39.821Z,0.33
2018-09-24T22:56:13.875Z,0.30
2018-09-24T22:58:47.990Z,0.57
2018-09-24T23:01:22.038Z,0.47
2018-09-24T23:03:56.093Z,1.03
2018-09-24T23:06:30.114Z,0.37
2018-09-24T23:09:04.245Z,0.50
2018-09-24T23:11:38.650Z,0.47
2018-09-24T23:14:12.768Z,0.60
2018-09-24T23:16:46.914Z,0.50
2018-09-24T23:19:20.959Z,0.70
2018-09-24T23:21:55.139Z,0.50
2018-09-24T23:24:29.174Z,1.00
2018-09-24T23:27:03.317Z,0.73
2018-09-24T23:29:37.158Z,0.83
2018-09-24T23:32:11.283Z,0.50
2018-09-24T23:34:45.223Z,0.60
2018-09-24T23:37:19.200Z,0.60
2018-09-24T23:39:53.121Z,0.37
2018-09-24T23:42:27.091Z,0.60
2018-09-24T23:45:01.037Z,0.60
2018-09-24T23:47:35.005Z,0.50
2018-09-24T23:50:08.923Z,0.50
2018-09-24T23:52:42.798Z,0.60
2018-09-24T23:55:16.766Z,0.40
2018-09-24T23:57:50.731Z,0.50
